sensor_id;sensor_type;location;lat;lon;timestamp;P1;durP1;ratioP1;P2;durP2;ratioP2
13941;SDS011;7043;51.630;7.254;2022-12-29T00:01:39;1.10;;;0.90;;
13941;SDS011;7043;51.630;7.254;2022-12-29T00:04:05;0.90;;;0.80;;
13941;SDS011;7043;51.630;7.254;2022-12-29T00:06:31;1.20;;;1.00;;
13941;SDS011;7043;51.630;7.254;2022-12-29T00:08:57;1.00;;;0.80;;
13941;SDS011;7043;51.630;7.254;2022-12-29T00:11:24;1.30;;;0.97;;
13941;SDS011;7043;51.630;7.254;2022-12-29T00:13:51;0.80;;;0.70;;
13941;SDS011;7043;51.630;7.254;2022-12-29T00:16:36;2.03;;;1.10;;
13941;SDS011;7043;51.630;7.254;2022-12-29T00:19:02;1.67;;;1.00;;
13941;SDS011;7043;51.630;7.254;2022-12-29T00:21:29;1.27;;;1.00;;
13941;SDS011;7043;51.630;7.254;2022-12-29T00:24:17;1.20;;;1.10;;
13941;SDS011;7043;51.630;7.254;2022-12-29T00:26:47;1.37;;;0.93;;
13941;SDS011;7043;51.630;7.254;2022-12-29T00:29:40;1.10;;;0.93;;
13941;SDS011;7043;51.630;7.254;2022-12-29T00:32:25;1.10;;;0.90;;
13941;SDS011;7043;51.630;7.254;2022-12-29T00:35:10;1.80;;;1.30;;
13941;SDS011;7043;51.630;7.254;2022-12-29T00:37:43;2.10;;;1.10;;
13941;SDS011;7043;51.630;7.254;2022-12-29T00:40:28;2.63;;;1.30;;
13941;SDS011;7043;51.630;7.254;2022-12-29T00:43:12;2.07;;;1.20;;
13941;SDS011;7043;51.630;7.254;2022-12-29T00:45:57;1.30;;;1.20;;
13941;SDS011;7043;51.630;7.254;2022-12-29T00:48:23;1.40;;;1.30;;
13941;SDS011;7043;51.630;7.254;2022-12-29T00:51:08;1.57;;;1.20;;
13941;SDS011;7043;51.630;7.254;2022-12-29T00:53:34;1.30;;;1.20;;
13941;SDS011;7043;51.630;7.254;2022-12-29T00:56:00;2.20;;;1.27;;
13941;SDS011;7043;51.630;7.254;2022-12-29T00:58:27;1.47;;;1.30;;
13941;SDS011;7043;51.630;7.254;2022-12-29T01:01:00;1.73;;;1.20;;
13941;SDS011;7043;51.630;7.254;2022-12-29T01:03:26;1.77;;;1.17;;
13941;SDS011;7043;51.630;7.254;2022-12-29T01:05:52;1.70;;;1.60;;
13941;SDS011;7043;51.630;7.254;2022-12-29T01:08:18;2.23;;;1.60;;
13941;SDS011;7043;51.630;7.254;2022-12-29T01:10:44;1.33;;;1.10;;
13941;SDS011;7043;51.630;7.254;2022-12-29T01:13:10;1.37;;;1.27;;
13941;SDS011;7043;51.630;7.254;2022-12-29T01:15:36;2.90;;;1.63;;
13941;SDS011;7043;51.630;7.254;2022-12-29T01:18:02;2.23;;;1.13;;
13941;SDS011;7043;51.630;7.254;2022-12-29T01:20:28;1.83;;;1.10;;
13941;SDS011;7043;51.630;7.254;2022-12-29T01:22:54;2.87;;;1.60;;
13941;SDS011;7043;51.630;7.254;2022-12-29T01:25:20;1.43;;;1.33;;
13941;SDS011;7043;51.630;7.254;2022-12-29T01:27:46;1.87;;;1.20;;
13941;SDS011;7043;51.630;7.254;2022-12-29T01:30:12;1.73;;;1.40;;
13941;SDS011;7043;51.630;7.254;2022-12-29T01:32:38;1.03;;;0.93;;
13941;SDS011;7043;51.630;7.254;2022-12-29T01:35:04;1.63;;;1.00;;
13941;SDS011;7043;51.630;7.254;2022-12-29T01:37:31;1.90;;;1.10;;
13941;SDS011;7043;51.630;7.254;2022-12-29T01:39:58;2.23;;;0.80;;
13941;SDS011;7043;51.630;7.254;2022-12-29T01:42:24;2.83;;;1.20;;
13941;SDS011;7043;51.630;7.254;2022-12-29T01:44:57;1.40;;;0.70;;
13941;SDS011;7043;51.630;7.254;2022-12-29T01:49:56;0.90;;;0.70;;
13941;SDS011;7043;51.630;7.254;2022-12-29T01:52:22;0.80;;;0.60;;
13941;SDS011;7043;51.630;7.254;2022-12-29T01:54:50;1.00;;;0.70;;
13941;SDS011;7043;51.630;7.254;2022-12-29T01:57:18;0.90;;;0.60;;
13941;SDS011;7043;51.630;7.254;2022-12-29T02:00:07;0.80;;;0.60;;
13941;SDS011;7043;51.630;7.254;2022-12-29T02:02:33;1.33;;;0.80;;
13941;SDS011;7043;51.630;7.254;2022-12-29T02:04:59;1.47;;;0.50;;
13941;SDS011;7043;51.630;7.254;2022-12-29T02:07:27;2.13;;;0.77;;
13941;SDS011;7043;51.630;7.254;2022-12-29T02:09:53;1.20;;;0.50;;
13941;SDS011;7043;51.630;7.254;2022-12-29T02:12:21;0.60;;;0.50;;
13941;SDS011;7043;51.630;7.254;2022-12-29T02:14:49;0.60;;;0.50;;
13941;SDS011;7043;51.630;7.254;2022-12-29T02:25:05;1.67;;;0.90;;
13941;SDS011;7043;51.630;7.254;2022-12-29T02:33:08;1.50;;;0.57;;
13941;SDS011;7043;51.630;7.254;2022-12-29T02:35:57;0.30;;;0.30;;
13941;SDS011;7043;51.630;7.254;2022-12-29T02:41:18;0.90;;;0.37;;
13941;SDS011;7043;51.630;7.254;2022-12-29T02:43:56;2.90;;;0.50;;
13941;SDS011;7043;51.630;7.254;2022-12-29T02:49:01;0.47;;;0.40;;
13941;SDS011;7043;51.630;7.254;2022-12-29T02:51:35;0.83;;;0.50;;
13941;SDS011;7043;51.630;7.254;2022-12-29T02:54:04;1.13;;;0.50;;
13941;SDS011;7043;51.630;7.254;2022-12-29T02:56:49;1.13;;;0.40;;
13941;SDS011;7043;51.630;7.254;2022-12-29T02:59:15;0.73;;;0.60;;
13941;SDS011;7043;51.630;7.254;2022-12-29T03:12:34;2.03;;;0.60;;
13941;SDS011;7043;51.630;7.254;2022-12-29T03:15:23;1.73;;;0.60;;
13941;SDS011;7043;51.630;7.254;2022-12-29T03:18:10;1.33;;;0.70;;
13941;SDS011;7043;51.630;7.254;2022-12-29T03:20:42;1.43;;;0.70;;
13941;SDS011;7043;51.630;7.254;2022-12-29T03:23:09;2.40;;;0.77;;
13941;SDS011;7043;51.630;7.254;2022-12-29T03:25:37;2.17;;;0.80;;
13941;SDS011;7043;51.630;7.254;2022-12-29T03:28:22;1.97;;;0.63;;
13941;SDS011;7043;51.630;7.254;2022-12-29T03:30:49;2.00;;;0.70;;
13941;SDS011;7043;51.630;7.254;2022-12-29T03:33:17;2.30;;;0.70;;
13941;SDS011;7043;51.630;7.254;2022-12-29T03:35:44;1.53;;;0.63;;
13941;SDS011;7043;51.630;7.254;2022-12-29T03:38:13;1.93;;;0.87;;
13941;SDS011;7043;51.630;7.254;2022-12-29T03:40:41;1.37;;;0.80;;
13941;SDS011;7043;51.630;7.254;2022-12-29T03:43:08;1.77;;;0.70;;
13941;SDS011;7043;51.630;7.254;2022-12-29T03:45:34;1.10;;;0.77;;
13941;SDS011;7043;51.630;7.254;2022-12-29T03:48:00;2.20;;;0.80;;
13941;SDS011;7043;51.630;7.254;2022-12-29T03:50:26;1.40;;;0.80;;
13941;SDS011;7043;51.630;7.254;2022-12-29T03:52:52;0.73;;;0.67;;
13941;SDS011;7043;51.630;7.254;2022-12-29T03:55:18;1.57;;;0.80;;
13941;SDS011;7043;51.630;7.254;2022-12-29T03:57:44;1.87;;;0.90;;
13941;SDS011;7043;51.630;7.254;2022-12-29T04:00:10;1.27;;;0.80;;
13941;SDS011;7043;51.630;7.254;2022-12-29T04:02:36;1.70;;;0.80;;
13941;SDS011;7043;51.630;7.254;2022-12-29T04:05:02;2.50;;;0.90;;
13941;SDS011;7043;51.630;7.254;2022-12-29T04:07:28;1.60;;;0.63;;
13941;SDS011;7043;51.630;7.254;2022-12-29T04:09:54;1.33;;;0.70;;
13941;SDS011;7043;51.630;7.254;2022-12-29T04:12:20;1.17;;;0.70;;
13941;SDS011;7043;51.630;7.254;2022-12-29T04:14:49;0.90;;;0.60;;
13941;SDS011;7043;51.630;7.254;2022-12-29T04:17:15;1.40;;;0.67;;
13941;SDS011;7043;51.630;7.254;2022-12-29T04:19:41;1.90;;;0.67;;
13941;SDS011;7043;51.630;7.254;2022-12-29T04:22:07;0.80;;;0.60;;
13941;SDS011;7043;51.630;7.254;2022-12-29T04:24:33;1.40;;;0.63;;
13941;SDS011;7043;51.630;7.254;2022-12-29T04:26:58;1.07;;;0.80;;
13941;SDS011;7043;51.630;7.254;2022-12-29T04:29:24;1.50;;;0.80;;
13941;SDS011;7043;51.630;7.254;2022-12-29T04:31:50;2.47;;;0.70;;
13941;SDS011;7043;51.630;7.254;2022-12-29T04:34:16;1.33;;;0.73;;
13941;SDS011;7043;51.630;7.254;2022-12-29T04:36:42;1.00;;;0.73;;
13941;SDS011;7043;51.630;7.254;2022-12-29T04:39:08;1.83;;;0.70;;
13941;SDS011;7043;51.630;7.254;2022-12-29T04:41:34;1.40;;;0.50;;
13941;SDS011;7043;51.630;7.254;2022-12-29T04:44:00;1.00;;;0.70;;
13941;SDS011;7043;51.630;7.254;2022-12-29T04:46:26;1.37;;;0.70;;
13941;SDS011;7043;51.630;7.254;2022-12-29T04:48:52;1.30;;;0.70;;
13941;SDS011;7043;51.630;7.254;2022-12-29T04:51:18;1.43;;;0.60;;
13941;SDS011;7043;51.630;7.254;2022-12-29T04:53:44;1.73;;;0.80;;
13941;SDS011;7043;51.630;7.254;2022-12-29T04:56:10;1.57;;;0.70;;
13941;SDS011;7043;51.630;7.254;2022-12-29T04:58:36;0.80;;;0.50;;
13941;SDS011;7043;51.630;7.254;2022-12-29T05:01:02;2.80;;;0.50;;
13941;SDS011;7043;51.630;7.254;2022-12-29T05:03:28;0.83;;;0.53;;
13941;SDS011;7043;51.630;7.254;2022-12-29T05:05:55;1.70;;;0.60;;
13941;SDS011;7043;51.630;7.254;2022-12-29T05:08:22;2.00;;;0.63;;
13941;SDS011;7043;51.630;7.254;2022-12-29T05:10:49;1.57;;;0.40;;
13941;SDS011;7043;51.630;7.254;2022-12-29T05:13:16;1.43;;;0.70;;
13941;SDS011;7043;51.630;7.254;2022-12-29T05:15:45;1.50;;;0.53;;
13941;SDS011;7043;51.630;7.254;2022-12-29T05:18:13;1.47;;;0.50;;
13941;SDS011;7043;51.630;7.254;2022-12-29T05:20:39;1.17;;;0.43;;
13941;SDS011;7043;51.630;7.254;2022-12-29T05:23:05;2.30;;;0.50;;
13941;SDS011;7043;51.630;7.254;2022-12-29T05:25:31;0.80;;;0.50;;
13941;SDS011;7043;51.630;7.254;2022-12-29T05:27:57;1.13;;;0.50;;
13941;SDS011;7043;51.630;7.254;2022-12-29T05:30:23;1.30;;;0.47;;
13941;SDS011;7043;51.630;7.254;2022-12-29T05:32:49;0.83;;;0.57;;
13941;SDS011;7043;51.630;7.254;2022-12-29T05:35:15;1.43;;;0.87;;
13941;SDS011;7043;51.630;7.254;2022-12-29T05:37:41;2.83;;;1.20;;
13941;SDS011;7043;51.630;7.254;2022-12-29T05:40:07;2.70;;;1.33;;
13941;SDS011;7043;51.630;7.254;2022-12-29T05:42:33;1.63;;;1.53;;
13941;SDS011;7043;51.630;7.254;2022-12-29T05:44:59;1.87;;;1.67;;
13941;SDS011;7043;51.630;7.254;2022-12-29T05:47:25;3.50;;;2.25;;
13941;SDS011;7043;51.630;7.254;2022-12-29T05:49:51;2.00;;;1.40;;
13941;SDS011;7043;51.630;7.254;2022-12-29T05:52:18;2.40;;;1.60;;
13941;SDS011;7043;51.630;7.254;2022-12-29T05:54:44;1.90;;;1.70;;
13941;SDS011;7043;51.630;7.254;2022-12-29T05:57:10;2.13;;;1.67;;
13941;SDS011;7043;51.630;7.254;2022-12-29T05:59:36;2.03;;;1.77;;
13941;SDS011;7043;51.630;7.254;2022-12-29T06:02:02;1.90;;;1.20;;
13941;SDS011;7043;51.630;7.254;2022-12-29T06:04:28;2.47;;;1.40;;
13941;SDS011;7043;51.630;7.254;2022-12-29T06:06:54;2.50;;;1.33;;
13941;SDS011;7043;51.630;7.254;2022-12-29T06:09:20;1.33;;;0.90;;
13941;SDS011;7043;51.630;7.254;2022-12-29T06:11:46;1.97;;;0.60;;
13941;SDS011;7043;51.630;7.254;2022-12-29T06:14:12;1.97;;;0.50;;
13941;SDS011;7043;51.630;7.254;2022-12-29T06:16:38;1.13;;;0.40;;
13941;SDS011;7043;51.630;7.254;2022-12-29T06:19:04;2.77;;;0.60;;
13941;SDS011;7043;51.630;7.254;2022-12-29T06:21:30;2.77;;;0.60;;
13941;SDS011;7043;51.630;7.254;2022-12-29T06:23:56;2.27;;;0.70;;
13941;SDS011;7043;51.630;7.254;2022-12-29T06:26:22;2.90;;;1.10;;
13941;SDS011;7043;51.630;7.254;2022-12-29T06:28:47;2.70;;;0.80;;
13941;SDS011;7043;51.630;7.254;2022-12-29T06:31:13;1.83;;;0.60;;
13941;SDS011;7043;51.630;7.254;2022-12-29T06:33:39;1.73;;;0.90;;
13941;SDS011;7043;51.630;7.254;2022-12-29T06:36:05;4.17;;;1.00;;
13941;SDS011;7043;51.630;7.254;2022-12-29T06:38:32;2.43;;;0.57;;
13941;SDS011;7043;51.630;7.254;2022-12-29T06:40:59;2.50;;;0.67;;
13941;SDS011;7043;51.630;7.254;2022-12-29T06:43:26;1.83;;;0.70;;
13941;SDS011;7043;51.630;7.254;2022-12-29T06:45:52;2.13;;;0.90;;
13941;SDS011;7043;51.630;7.254;2022-12-29T06:48:18;2.20;;;0.90;;
13941;SDS011;7043;51.630;7.254;2022-12-29T06:50:44;3.43;;;1.10;;
13941;SDS011;7043;51.630;7.254;2022-12-29T06:53:10;2.37;;;0.60;;
13941;SDS011;7043;51.630;7.254;2022-12-29T06:55:36;1.77;;;0.80;;
13941;SDS011;7043;51.630;7.254;2022-12-29T06:58:02;1.33;;;0.90;;
13941;SDS011;7043;51.630;7.254;2022-12-29T07:00:28;2.50;;;0.93;;
13941;SDS011;7043;51.630;7.254;2022-12-29T07:02:55;2.50;;;0.77;;
13941;SDS011;7043;51.630;7.254;2022-12-29T07:05:23;1.30;;;0.70;;
13941;SDS011;7043;51.630;7.254;2022-12-29T07:07:49;4.70;;;1.37;;
13941;SDS011;7043;51.630;7.254;2022-12-29T07:10:15;3.23;;;1.10;;
13941;SDS011;7043;51.630;7.254;2022-12-29T07:12:41;2.33;;;0.60;;
13941;SDS011;7043;51.630;7.254;2022-12-29T07:15:08;4.63;;;0.83;;
13941;SDS011;7043;51.630;7.254;2022-12-29T07:17:34;3.07;;;1.00;;
13941;SDS011;7043;51.630;7.254;2022-12-29T07:20:00;3.87;;;0.80;;
13941;SDS011;7043;51.630;7.254;2022-12-29T07:22:25;4.10;;;1.17;;
13941;SDS011;7043;51.630;7.254;2022-12-29T07:24:52;3.17;;;0.90;;
13941;SDS011;7043;51.630;7.254;2022-12-29T07:27:17;3.87;;;1.10;;
13941;SDS011;7043;51.630;7.254;2022-12-29T07:29:43;2.13;;;0.90;;
13941;SDS011;7043;51.630;7.254;2022-12-29T07:32:09;2.73;;;0.93;;
13941;SDS011;7043;51.630;7.254;2022-12-29T07:34:35;2.47;;;0.87;;
13941;SDS011;7043;51.630;7.254;2022-12-29T07:37:01;1.83;;;0.90;;
13941;SDS011;7043;51.630;7.254;2022-12-29T07:39:27;2.93;;;0.93;;
13941;SDS011;7043;51.630;7.254;2022-12-29T07:41:53;5.07;;;1.00;;
13941;SDS011;7043;51.630;7.254;2022-12-29T07:44:19;2.87;;;0.83;;
13941;SDS011;7043;51.630;7.254;2022-12-29T07:46:45;3.17;;;1.07;;
13941;SDS011;7043;51.630;7.254;2022-12-29T07:49:11;2.90;;;1.23;;
13941;SDS011;7043;51.630;7.254;2022-12-29T07:51:38;1.40;;;0.97;;
13941;SDS011;7043;51.630;7.254;2022-12-29T07:54:04;3.67;;;1.20;;
13941;SDS011;7043;51.630;7.254;2022-12-29T07:56:30;3.73;;;1.23;;
13941;SDS011;7043;51.630;7.254;2022-12-29T07:58:56;4.70;;;1.20;;
13941;SDS011;7043;51.630;7.254;2022-12-29T08:01:22;2.63;;;1.20;;
13941;SDS011;7043;51.630;7.254;2022-12-29T08:03:48;5.67;;;1.20;;
13941;SDS011;7043;51.630;7.254;2022-12-29T08:06:14;3.33;;;1.00;;
13941;SDS011;7043;51.630;7.254;2022-12-29T08:08:40;2.30;;;0.93;;
13941;SDS011;7043;51.630;7.254;2022-12-29T08:11:07;4.00;;;1.27;;
13941;SDS011;7043;51.630;7.254;2022-12-29T08:13:33;2.50;;;1.00;;
13941;SDS011;7043;51.630;7.254;2022-12-29T08:15:59;3.70;;;1.10;;
13941;SDS011;7043;51.630;7.254;2022-12-29T08:18:25;4.37;;;0.97;;
13941;SDS011;7043;51.630;7.254;2022-12-29T08:20:51;2.67;;;0.97;;
13941;SDS011;7043;51.630;7.254;2022-12-29T08:23:17;2.30;;;0.80;;
13941;SDS011;7043;51.630;7.254;2022-12-29T08:25:43;3.17;;;0.90;;
13941;SDS011;7043;51.630;7.254;2022-12-29T08:28:09;5.87;;;1.20;;
13941;SDS011;7043;51.630;7.254;2022-12-29T08:30:35;3.00;;;1.03;;
13941;SDS011;7043;51.630;7.254;2022-12-29T08:33:01;3.13;;;0.93;;
13941;SDS011;7043;51.630;7.254;2022-12-29T08:35:27;5.23;;;1.17;;
13941;SDS011;7043;51.630;7.254;2022-12-29T08:37:53;4.70;;;1.37;;
13941;SDS011;7043;51.630;7.254;2022-12-29T08:40:19;3.47;;;1.20;;
13941;SDS011;7043;51.630;7.254;2022-12-29T08:42:46;4.23;;;1.13;;
13941;SDS011;7043;51.630;7.254;2022-12-29T08:45:12;4.23;;;0.97;;
13941;SDS011;7043;51.630;7.254;2022-12-29T08:47:38;5.23;;;1.00;;
13941;SDS011;7043;51.630;7.254;2022-12-29T08:50:04;3.13;;;1.00;;
13941;SDS011;7043;51.630;7.254;2022-12-29T08:52:33;4.50;;;1.30;;
13941;SDS011;7043;51.630;7.254;2022-12-29T08:54:59;5.07;;;1.03;;
13941;SDS011;7043;51.630;7.254;2022-12-29T08:57:25;1.80;;;0.90;;
13941;SDS011;7043;51.630;7.254;2022-12-29T08:59:51;3.53;;;1.00;;
13941;SDS011;7043;51.630;7.254;2022-12-29T09:02:17;3.83;;;1.20;;
13941;SDS011;7043;51.630;7.254;2022-12-29T09:04:43;4.27;;;1.60;;
13941;SDS011;7043;51.630;7.254;2022-12-29T09:07:10;4.50;;;1.37;;
13941;SDS011;7043;51.630;7.254;2022-12-29T09:09:36;6.03;;;1.47;;
13941;SDS011;7043;51.630;7.254;2022-12-29T09:12:02;7.77;;;1.50;;
13941;SDS011;7043;51.630;7.254;2022-12-29T09:14:28;4.13;;;1.47;;
13941;SDS011;7043;51.630;7.254;2022-12-29T09:16:54;5.37;;;1.40;;
13941;SDS011;7043;51.630;7.254;2022-12-29T09:19:39;6.33;;;1.50;;
13941;SDS011;7043;51.630;7.254;2022-12-29T09:22:05;5.00;;;1.13;;
13941;SDS011;7043;51.630;7.254;2022-12-29T09:24:31;3.57;;;1.37;;
13941;SDS011;7043;51.630;7.254;2022-12-29T09:26:57;2.73;;;1.10;;
13941;SDS011;7043;51.630;7.254;2022-12-29T09:29:23;2.43;;;1.00;;
13941;SDS011;7043;51.630;7.254;2022-12-29T09:31:49;3.93;;;1.00;;
13941;SDS011;7043;51.630;7.254;2022-12-29T09:34:15;3.80;;;1.20;;
13941;SDS011;7043;51.630;7.254;2022-12-29T09:36:41;4.00;;;1.30;;
13941;SDS011;7043;51.630;7.254;2022-12-29T09:39:07;3.90;;;1.17;;
13941;SDS011;7043;51.630;7.254;2022-12-29T09:41:44;2.93;;;1.20;;
13941;SDS011;7043;51.630;7.254;2022-12-29T09:46:47;4.07;;;1.47;;
13941;SDS011;7043;51.630;7.254;2022-12-29T09:52:04;7.30;;;1.80;;
13941;SDS011;7043;51.630;7.254;2022-12-29T09:56:57;5.13;;;1.43;;
13941;SDS011;7043;51.630;7.254;2022-12-29T09:59:24;4.30;;;1.27;;
13941;SDS011;7043;51.630;7.254;2022-12-29T10:04:18;4.97;;;1.03;;
13941;SDS011;7043;51.630;7.254;2022-12-29T10:09:23;7.53;;;1.67;;
13941;SDS011;7043;51.630;7.254;2022-12-29T10:17:15;3.53;;;1.10;;
13941;SDS011;7043;51.630;7.254;2022-12-29T10:19:48;6.10;;;1.50;;
13941;SDS011;7043;51.630;7.254;2022-12-29T10:22:24;3.53;;;1.13;;
13941;SDS011;7043;51.630;7.254;2022-12-29T10:24:54;2.93;;;0.73;;
13941;SDS011;7043;51.630;7.254;2022-12-29T10:27:22;6.73;;;1.00;;
13941;SDS011;7043;51.630;7.254;2022-12-29T10:29:49;5.47;;;1.17;;
13941;SDS011;7043;51.630;7.254;2022-12-29T10:34:49;5.40;;;1.27;;
13941;SDS011;7043;51.630;7.254;2022-12-29T10:39:55;4.60;;;1.17;;
13941;SDS011;7043;51.630;7.254;2022-12-29T10:44:47;3.03;;;0.97;;
13941;SDS011;7043;51.630;7.254;2022-12-29T10:47:14;2.80;;;0.90;;
13941;SDS011;7043;51.630;7.254;2022-12-29T10:49:42;5.17;;;1.20;;
13941;SDS011;7043;51.630;7.254;2022-12-29T10:52:10;4.67;;;1.10;;
13941;SDS011;7043;51.630;7.254;2022-12-29T10:54:48;4.07;;;1.40;;
13941;SDS011;7043;51.630;7.254;2022-12-29T10:57:23;5.53;;;1.13;;
13941;SDS011;7043;51.630;7.254;2022-12-29T10:59:50;4.23;;;0.83;;
13941;SDS011;7043;51.630;7.254;2022-12-29T11:05:06;3.03;;;1.00;;
13941;SDS011;7043;51.630;7.254;2022-12-29T11:07:36;6.23;;;1.60;;
13941;SDS011;7043;51.630;7.254;2022-12-29T11:10:19;3.93;;;1.07;;
13941;SDS011;7043;51.630;7.254;2022-12-29T11:12:55;3.97;;;1.30;;
13941;SDS011;7043;51.630;7.254;2022-12-29T11:15:22;4.30;;;1.10;;
13941;SDS011;7043;51.630;7.254;2022-12-29T11:17:49;4.13;;;1.07;;
13941;SDS011;7043;51.630;7.254;2022-12-29T11:20:37;4.97;;;1.10;;
13941;SDS011;7043;51.630;7.254;2022-12-29T11:26:33;4.20;;;1.17;;
13941;SDS011;7043;51.630;7.254;2022-12-29T11:28:42;3.63;;;1.37;;
13941;SDS011;7043;51.630;7.254;2022-12-29T11:31:08;5.27;;;1.40;;
13941;SDS011;7043;51.630;7.254;2022-12-29T11:33:36;4.37;;;1.20;;
13941;SDS011;7043;51.630;7.254;2022-12-29T11:38:34;3.77;;;1.47;;
13941;SDS011;7043;51.630;7.254;2022-12-29T11:41:01;6.40;;;1.30;;
13941;SDS011;7043;51.630;7.254;2022-12-29T11:43:31;5.47;;;1.27;;
13941;SDS011;7043;51.630;7.254;2022-12-29T11:45:58;6.70;;;1.77;;
13941;SDS011;7043;51.630;7.254;2022-12-29T11:48:25;4.50;;;1.63;;
13941;SDS011;7043;51.630;7.254;2022-12-29T11:50:55;4.50;;;1.17;;
13941;SDS011;7043;51.630;7.254;2022-12-29T11:53:25;4.07;;;1.03;;
13941;SDS011;7043;51.630;7.254;2022-12-29T11:55:56;5.63;;;1.50;;
13941;SDS011;7043;51.630;7.254;2022-12-29T11:58:30;4.80;;;1.20;;
13941;SDS011;7043;51.630;7.254;2022-12-29T12:00:59;3.97;;;1.43;;
13941;SDS011;7043;51.630;7.254;2022-12-29T12:03:26;3.60;;;1.10;;
13941;SDS011;7043;51.630;7.254;2022-12-29T12:06:12;4.20;;;1.33;;
13941;SDS011;7043;51.630;7.254;2022-12-29T12:11:16;4.73;;;1.40;;
13941;SDS011;7043;51.630;7.254;2022-12-29T12:14:04;9.30;;;1.47;;
13941;SDS011;7043;51.630;7.254;2022-12-29T12:16:33;3.37;;;1.10;;
13941;SDS011;7043;51.630;7.254;2022-12-29T12:19:09;5.77;;;1.13;;
13941;SDS011;7043;51.630;7.254;2022-12-29T12:21:38;6.63;;;1.57;;
13941;SDS011;7043;51.630;7.254;2022-12-29T12:24:48;7.30;;;1.07;;
13941;SDS011;7043;51.630;7.254;2022-12-29T12:26:55;6.90;;;1.73;;
13941;SDS011;7043;51.630;7.254;2022-12-29T12:32:29;5.63;;;1.23;;
13941;SDS011;7043;51.630;7.254;2022-12-29T12:34:57;4.10;;;1.07;;
13941;SDS011;7043;51.630;7.254;2022-12-29T12:50:42;5.77;;;1.67;;
13941;SDS011;7043;51.630;7.254;2022-12-29T12:53:59;5.63;;;1.60;;
13941;SDS011;7043;51.630;7.254;2022-12-29T13:01:51;3.30;;;1.00;;
13941;SDS011;7043;51.630;7.254;2022-12-29T13:06:44;4.63;;;1.30;;
13941;SDS011;7043;51.630;7.254;2022-12-29T13:12:04;5.57;;;1.83;;
13941;SDS011;7043;51.630;7.254;2022-12-29T13:17:12;4.13;;;1.10;;
13941;SDS011;7043;51.630;7.254;2022-12-29T13:22:12;3.70;;;1.23;;
13941;SDS011;7043;51.630;7.254;2022-12-29T13:35:14;6.10;;;1.43;;
13941;SDS011;7043;51.630;7.254;2022-12-29T13:37:47;6.10;;;2.50;;
13941;SDS011;7043;51.630;7.254;2022-12-29T13:40:15;2.37;;;0.77;;
13941;SDS011;7043;51.630;7.254;2022-12-29T13:42:42;5.73;;;2.00;;
13941;SDS011;7043;51.630;7.254;2022-12-29T13:45:15;5.30;;;1.50;;
13941;SDS011;7043;51.630;7.254;2022-12-29T13:50:18;6.43;;;1.17;;
13941;SDS011;7043;51.630;7.254;2022-12-29T13:58:13;4.03;;;1.30;;
13941;SDS011;7043;51.630;7.254;2022-12-29T14:06:02;4.43;;;1.37;;
13941;SDS011;7043;51.630;7.254;2022-12-29T14:08:29;5.80;;;1.47;;
13941;SDS011;7043;51.630;7.254;2022-12-29T14:11:00;6.50;;;1.40;;
13941;SDS011;7043;51.630;7.254;2022-12-29T14:13:32;4.93;;;1.33;;
13941;SDS011;7043;51.630;7.254;2022-12-29T14:16:04;4.90;;;1.50;;
13941;SDS011;7043;51.630;7.254;2022-12-29T14:18:40;4.40;;;1.07;;
13941;SDS011;7043;51.630;7.254;2022-12-29T14:21:17;5.07;;;1.17;;
13941;SDS011;7043;51.630;7.254;2022-12-29T14:23:48;4.37;;;1.40;;
13941;SDS011;7043;51.630;7.254;2022-12-29T14:32:09;4.50;;;1.47;;
13941;SDS011;7043;51.630;7.254;2022-12-29T14:34:58;4.83;;;1.10;;
13941;SDS011;7043;51.630;7.254;2022-12-29T14:37:30;4.57;;;1.67;;
13941;SDS011;7043;51.630;7.254;2022-12-29T14:42:30;5.40;;;1.73;;
13941;SDS011;7043;51.630;7.254;2022-12-29T14:45:06;6.77;;;2.10;;
13941;SDS011;7043;51.630;7.254;2022-12-29T14:47:34;8.00;;;1.53;;
13941;SDS011;7043;51.630;7.254;2022-12-29T14:50:05;6.13;;;1.50;;
13941;SDS011;7043;51.630;7.254;2022-12-29T14:52:32;5.90;;;2.10;;
13941;SDS011;7043;51.630;7.254;2022-12-29T14:57:50;5.70;;;1.77;;
13941;SDS011;7043;51.630;7.254;2022-12-29T15:00:22;6.23;;;2.40;;
13941;SDS011;7043;51.630;7.254;2022-12-29T15:03:38;5.97;;;3.50;;
13941;SDS011;7043;51.630;7.254;2022-12-29T15:05:41;6.33;;;2.90;;
13941;SDS011;7043;51.630;7.254;2022-12-29T15:08:09;6.97;;;1.97;;
13941;SDS011;7043;51.630;7.254;2022-12-29T15:10:43;5.20;;;1.47;;
13941;SDS011;7043;51.630;7.254;2022-12-29T15:13:15;5.87;;;1.90;;
13941;SDS011;7043;51.630;7.254;2022-12-29T15:15:42;7.37;;;2.10;;
13941;SDS011;7043;51.630;7.254;2022-12-29T15:20:41;6.23;;;1.70;;
13941;SDS011;7043;51.630;7.254;2022-12-29T15:23:10;7.07;;;1.73;;
13941;SDS011;7043;51.630;7.254;2022-12-29T15:25:46;5.37;;;1.80;;
13941;SDS011;7043;51.630;7.254;2022-12-29T15:28:16;3.53;;;1.50;;
13941;SDS011;7043;51.630;7.254;2022-12-29T15:30:53;6.60;;;1.83;;
13941;SDS011;7043;51.630;7.254;2022-12-29T15:33:23;5.73;;;1.50;;
13941;SDS011;7043;51.630;7.254;2022-12-29T15:35:50;5.63;;;1.77;;
13941;SDS011;7043;51.630;7.254;2022-12-29T15:38:21;5.83;;;1.70;;
13941;SDS011;7043;51.630;7.254;2022-12-29T15:40:51;4.53;;;1.53;;
13941;SDS011;7043;51.630;7.254;2022-12-29T15:43:38;4.90;;;1.60;;
13941;SDS011;7043;51.630;7.254;2022-12-29T15:46:10;6.30;;;1.40;;
13941;SDS011;7043;51.630;7.254;2022-12-29T15:48:36;6.27;;;1.80;;
13941;SDS011;7043;51.630;7.254;2022-12-29T15:51:04;4.83;;;1.70;;
13941;SDS011;7043;51.630;7.254;2022-12-29T15:53:38;8.23;;;2.03;;
13941;SDS011;7043;51.630;7.254;2022-12-29T15:56:10;6.00;;;2.20;;
13941;SDS011;7043;51.630;7.254;2022-12-29T16:01:17;5.43;;;2.00;;
13941;SDS011;7043;51.630;7.254;2022-12-29T16:03:44;6.63;;;1.60;;
13941;SDS011;7043;51.630;7.254;2022-12-29T16:06:32;5.53;;;1.70;;
13941;SDS011;7043;51.630;7.254;2022-12-29T16:09:19;7.50;;;1.87;;
13941;SDS011;7043;51.630;7.254;2022-12-29T16:12:04;6.90;;;1.97;;
13941;SDS011;7043;51.630;7.254;2022-12-29T16:14:44;7.30;;;1.90;;
13941;SDS011;7043;51.630;7.254;2022-12-29T16:17:17;6.00;;;1.90;;
13941;SDS011;7043;51.630;7.254;2022-12-29T16:19:48;7.63;;;2.20;;
13941;SDS011;7043;51.630;7.254;2022-12-29T16:22:18;7.50;;;2.70;;
13941;SDS011;7043;51.630;7.254;2022-12-29T16:24:45;5.40;;;2.10;;
13941;SDS011;7043;51.630;7.254;2022-12-29T16:27:20;8.23;;;2.50;;
13941;SDS011;7043;51.630;7.254;2022-12-29T16:29:48;6.73;;;2.07;;
13941;SDS011;7043;51.630;7.254;2022-12-29T16:32:30;4.77;;;1.70;;
13941;SDS011;7043;51.630;7.254;2022-12-29T16:37:34;6.67;;;2.33;;
13941;SDS011;7043;51.630;7.254;2022-12-29T16:43:01;8.10;;;1.57;;
13941;SDS011;7043;51.630;7.254;2022-12-29T16:48:25;6.93;;;1.50;;
13941;SDS011;7043;51.630;7.254;2022-12-29T16:50:51;6.23;;;1.87;;
13941;SDS011;7043;51.630;7.254;2022-12-29T16:53:27;3.90;;;1.70;;
13941;SDS011;7043;51.630;7.254;2022-12-29T16:55:54;7.33;;;1.97;;
13941;SDS011;7043;51.630;7.254;2022-12-29T16:58:26;4.80;;;1.87;;
13941;SDS011;7043;51.630;7.254;2022-12-29T17:00:55;11.87;;;3.23;;
13941;SDS011;7043;51.630;7.254;2022-12-29T17:03:22;6.03;;;1.60;;
13941;SDS011;7043;51.630;7.254;2022-12-29T17:05:49;8.03;;;2.07;;
13941;SDS011;7043;51.630;7.254;2022-12-29T17:08:22;3.37;;;1.60;;
13941;SDS011;7043;51.630;7.254;2022-12-29T17:10:51;5.70;;;2.07;;
13941;SDS011;7043;51.630;7.254;2022-12-29T17:13:36;6.83;;;1.70;;
13941;SDS011;7043;51.630;7.254;2022-12-29T17:16:03;7.67;;;1.80;;
13941;SDS011;7043;51.630;7.254;2022-12-29T17:18:29;8.77;;;1.83;;
13941;SDS011;7043;51.630;7.254;2022-12-29T17:20:56;5.53;;;1.73;;
13941;SDS011;7043;51.630;7.254;2022-12-29T17:23:25;5.00;;;1.87;;
13941;SDS011;7043;51.630;7.254;2022-12-29T17:25:56;2.77;;;1.63;;
13941;SDS011;7043;51.630;7.254;2022-12-29T17:28:26;4.47;;;1.80;;
13941;SDS011;7043;51.630;7.254;2022-12-29T17:30:54;4.00;;;1.27;;
13941;SDS011;7043;51.630;7.254;2022-12-29T17:33:21;3.73;;;1.00;;
13941;SDS011;7043;51.630;7.254;2022-12-29T17:35:47;3.13;;;1.00;;
13941;SDS011;7043;51.630;7.254;2022-12-29T17:38:25;3.90;;;1.10;;
13941;SDS011;7043;51.630;7.254;2022-12-29T17:40:54;1.37;;;0.50;;
13941;SDS011;7043;51.630;7.254;2022-12-29T17:43:22;1.60;;;0.70;;